createdAt,value
2023-01-01T00:03:11.680Z,15.14
2023-01-01T00:08:08.063Z,15.24
2023-01-01T00:13:04.788Z,15.30
2023-01-01T00:18:01.132Z,15.23
2023-01-01T00:22:57.497Z,15.27
2023-01-01T00:27:54.071Z,15.33
2023-01-01T00:32:54.645Z,15.36
2023-01-01T00:37:53.921Z,15.33
2023-01-01T00:42:50.302Z,15.43
2023-01-01T00:47:46.672Z,15.45
2023-01-01T00:52:43.219Z,15.44
2023-01-01T00:57:39.830Z,15.37
2023-01-01T01:02:36.519Z,15.41
2023-01-01T01:07:35.728Z,15.45
2023-01-01T01:12:34.723Z,15.41
2023-01-01T01:17:31.575Z,15.32
2023-01-01T01:22:29.080Z,15.36
2023-01-01T01:27:25.755Z,15.36
2023-01-01T01:32:22.118Z,15.23
2023-01-01T01:37:21.023Z,15.29
2023-01-01T01:42:18.312Z,15.25
2023-01-01T01:47:23.860Z,15.15
2023-01-01T01:52:20.512Z,15.18
2023-01-01T01:57:18.495Z,15.12
2023-01-01T02:02:24.499Z,15.10
2023-01-01T02:07:22.047Z,14.95
2023-01-01T02:12:18.449Z,14.92
2023-01-01T02:17:38.785Z,14.96
2023-01-01T02:23:00.488Z,14.94
2023-01-01T02:28:31.060Z,14.99
2023-01-01T02:33:28.911Z,14.94
2023-01-01T02:38:29.565Z,14.94
2023-01-01T02:43:25.944Z,14.95
2023-01-01T02:48:43.136Z,15.00
2023-01-01T02:53:49.334Z,14.87
2023-01-01T02:59:16.240Z,14.88
2023-01-01T03:04:30.259Z,14.76
2023-01-01T03:09:45.170Z,14.67
2023-01-01T03:14:57.817Z,14.57
2023-01-01T03:19:57.195Z,14.58
2023-01-01T03:24:59.097Z,14.56
2023-01-01T03:29:59.498Z,14.52
2023-01-01T03:34:57.828Z,14.39
2023-01-01T03:39:59.647Z,14.54
2023-01-01T03:45:04.021Z,14.53
2023-01-01T03:50:02.200Z,14.55
2023-01-01T03:55:17.204Z,14.62
2023-01-01T04:00:23.500Z,14.58
2023-01-01T04:05:21.347Z,14.54
2023-01-01T04:10:18.275Z,14.57
2023-01-01T04:15:16.701Z,14.51
2023-01-01T04:20:14.300Z,14.49
2023-01-01T04:25:11.905Z,14.47
2023-01-01T04:30:11.303Z,14.43
2023-01-01T04:35:09.413Z,14.36
2023-01-01T04:40:06.628Z,14.42
2023-01-01T04:45:03.143Z,14.39
2023-01-01T04:49:59.529Z,14.31
2023-01-01T04:54:55.920Z,14.22
2023-01-01T04:59:52.271Z,14.28
2023-01-01T05:04:48.992Z,14.25
2023-01-01T05:09:45.349Z,14.25
2023-01-01T05:14:41.770Z,14.27
2023-01-01T05:19:38.288Z,14.20
2023-01-01T05:24:36.418Z,14.23
2023-01-01T05:29:32.768Z,14.20
2023-01-01T05:39:27.691Z,14.27
2023-01-01T05:44:24.130Z,14.27
2023-01-01T05:49:20.589Z,14.27
2023-01-01T05:59:12.337Z,14.16
2023-01-01T06:04:09.438Z,14.17
2023-01-01T06:09:05.846Z,14.07
2023-01-01T06:14:02.429Z,13.94
2023-01-01T06:18:59.917Z,13.91
2023-01-01T06:23:57.840Z,13.91
2023-01-01T06:28:55.769Z,13.87
2023-01-01T06:33:52.726Z,13.81
2023-01-01T06:38:51.303Z,13.76
2023-01-01T06:43:48.147Z,13.77
2023-01-01T06:48:46.466Z,13.79
2023-01-01T06:53:42.885Z,13.74
2023-01-01T06:58:39.359Z,13.74
2023-01-01T07:03:36.785Z,13.68
2023-01-01T07:08:33.598Z,13.66
2023-01-01T07:13:30.756Z,13.76
2023-01-01T07:18:27.245Z,13.80
2023-01-01T07:23:24.608Z,13.78
2023-01-01T07:28:22.051Z,13.87
2023-01-01T07:33:20.300Z,13.85
2023-01-01T07:38:17.056Z,13.77
2023-01-01T07:43:14.157Z,13.81
2023-01-01T07:48:14.734Z,13.80
2023-01-01T07:53:11.146Z,13.68
2023-01-01T07:58:07.520Z,13.58
2023-01-01T08:03:04.257Z,13.47
2023-01-01T08:08:00.685Z,13.39
2023-01-01T08:13:05.389Z,13.38
2023-01-01T08:18:04.018Z,13.35
2023-01-01T08:23:06.662Z,13.33
2023-01-01T08:28:03.990Z,13.30
2023-01-01T08:33:00.514Z,13.28
2023-01-01T08:37:56.854Z,13.21
2023-01-01T08:42:53.204Z,13.13
2023-01-01T08:47:49.584Z,12.97
2023-01-01T08:52:45.925Z,12.77
2023-01-01T08:57:42.311Z,12.48
2023-01-01T09:02:38.760Z,12.24
2023-01-01T09:07:35.255Z,12.29
2023-01-01T09:12:31.613Z,12.26
2023-01-01T09:17:28.024Z,12.22
2023-01-01T09:22:24.439Z,12.17
2023-01-01T09:27:20.844Z,12.01
2023-01-01T09:32:18.592Z,11.88
2023-01-01T09:37:14.928Z,11.81
2023-01-01T09:42:27.791Z,11.82
2023-01-01T09:47:46.018Z,11.85
2023-01-01T09:52:55.448Z,11.68
2023-01-01T09:57:51.992Z,10.90
2023-01-01T10:03:28.609Z,10.51
2023-01-01T10:08:48.656Z,10.36
2023-01-01T10:13:46.199Z,10.23
2023-01-01T10:18:45.540Z,10.18
2023-01-01T10:23:47.651Z,10.16
2023-01-01T10:29:05.424Z,10.16
2023-01-01T10:34:23.167Z,10.13
2023-01-01T10:39:19.996Z,10.18
2023-01-01T10:44:29.048Z,10.15
2023-01-01T10:49:25.463Z,10.14
2023-01-01T10:54:33.868Z,10.21
2023-01-01T10:59:37.941Z,10.26
2023-01-01T11:04:34.714Z,10.15
2023-01-01T11:09:37.023Z,10.21
2023-01-01T11:14:50.685Z,10.25
2023-01-01T11:19:51.932Z,10.34
2023-01-01T11:25:02.252Z,10.44
2023-01-01T11:30:27.866Z,10.60
2023-01-01T11:35:27.757Z,10.47
2023-01-01T11:40:30.428Z,10.43
2023-01-01T11:45:37.328Z,10.42
2023-01-01T11:50:38.462Z,10.37
2023-01-01T11:55:43.174Z,10.33
2023-01-01T12:00:39.613Z,10.31
2023-01-01T12:06:00.105Z,10.48
2023-01-01T12:11:10.952Z,10.66
2023-01-01T12:16:18.585Z,10.53
2023-01-01T12:21:20.590Z,10.56
2023-01-01T12:26:38.968Z,10.78
2023-01-01T12:31:42.616Z,10.86
2023-01-01T12:36:52.944Z,10.98
2023-01-01T12:42:15.542Z,11.27
2023-01-01T12:47:14.651Z,11.54
2023-01-01T12:52:11.020Z,11.67
2023-01-01T12:57:30.291Z,11.68
2023-01-01T13:02:29.810Z,11.85
2023-01-01T13:07:39.201Z,12.10
2023-01-01T13:12:37.868Z,12.29
2023-01-01T13:17:34.241Z,12.43
2023-01-01T13:22:30.629Z,12.64
2023-01-01T13:27:59.351Z,12.79
2023-01-01T13:33:23.260Z,12.86
2023-01-01T13:38:49.513Z,12.91
2023-01-01T13:43:45.932Z,12.91
2023-01-01T13:49:01.351Z,12.86
2023-01-01T13:54:26.812Z,12.91
2023-01-01T14:00:01.690Z,12.89
2023-01-01T14:05:30.403Z,12.84
2023-01-01T14:10:28.374Z,12.78
2023-01-01T14:15:34.773Z,12.77
2023-01-01T14:20:39.952Z,12.74
2023-01-01T14:25:36.809Z,12.67
2023-01-01T14:30:33.432Z,12.64
2023-01-01T14:35:30.001Z,12.60
2023-01-01T14:40:30.480Z,12.61
2023-01-01T14:45:27.602Z,12.56
2023-01-01T14:50:29.730Z,12.53
2023-01-01T14:55:31.809Z,12.49
2023-01-01T15:00:33.108Z,12.37
2023-01-01T15:05:35.344Z,12.41
2023-01-01T15:10:35.791Z,12.33
2023-01-01T15:15:43.983Z,12.29
2023-01-01T15:20:40.412Z,12.28
2023-01-01T15:25:38.368Z,12.16
2023-01-01T15:30:36.384Z,12.28
2023-01-01T15:35:34.270Z,12.21
2023-01-01T15:40:35.127Z,12.25
2023-01-01T15:45:35.951Z,12.10
2023-01-01T15:50:34.497Z,12.06
2023-01-01T15:55:34.634Z,11.92
2023-01-01T16:00:35.488Z,11.87
2023-01-01T16:05:31.931Z,11.80
2023-01-01T16:10:28.503Z,11.67
2023-01-01T16:15:25.550Z,11.55
2023-01-01T16:20:22.603Z,11.42
2023-01-01T16:25:22.091Z,11.47
2023-01-01T16:30:18.465Z,11.45
2023-01-01T16:35:14.893Z,11.51
2023-01-01T16:40:11.380Z,11.42
2023-01-01T16:45:08.538Z,11.46
2023-01-01T16:50:05.286Z,11.42
2023-01-01T16:55:01.905Z,11.42
2023-01-01T16:59:58.516Z,11.29
2023-01-01T17:04:54.868Z,11.30
2023-01-01T17:09:51.199Z,11.25
2023-01-01T17:14:47.639Z,11.19
2023-01-01T17:19:44.143Z,11.24
2023-01-01T17:24:40.513Z,11.31
2023-01-01T17:29:37.140Z,11.35
2023-01-01T17:34:33.627Z,11.23
2023-01-01T17:39:29.964Z,11.16
2023-01-01T17:44:26.317Z,11.11
2023-01-01T17:49:22.666Z,11.03
2023-01-01T17:54:19.206Z,11.00
2023-01-01T17:59:15.598Z,10.91
2023-01-01T18:04:11.961Z,10.83
2023-01-01T18:09:11.639Z,10.89
2023-01-01T18:14:08.017Z,11.05
2023-01-01T18:19:05.489Z,11.03
2023-01-01T18:24:02.445Z,10.78
2023-01-01T18:29:02.529Z,10.83
2023-01-01T18:33:59.147Z,10.66
2023-01-01T18:39:03.365Z,10.69
2023-01-01T18:44:00.235Z,10.67
2023-01-01T18:48:59.820Z,10.71
2023-01-01T18:53:58.405Z,10.69
2023-01-01T18:58:56.861Z,10.69
2023-01-01T19:04:00.247Z,10.62
2023-01-01T19:09:14.160Z,10.53
2023-01-01T19:14:21.671Z,10.49
2023-01-01T19:19:23.323Z,10.50
2023-01-01T19:24:23.803Z,10.50
2023-01-01T19:29:23.719Z,10.51
2023-01-01T19:34:20.988Z,10.48
2023-01-01T19:39:17.564Z,10.33
2023-01-01T19:44:15.489Z,10.26
2023-01-01T19:49:13.710Z,10.30
2023-01-01T19:54:10.671Z,10.19
2023-01-01T19:59:07.891Z,10.24
2023-01-01T20:04:04.572Z,10.25
2023-01-01T20:09:01.046Z,10.27
2023-01-01T20:13:57.625Z,10.24
2023-01-01T20:18:54.000Z,10.19
2023-01-01T20:23:50.329Z,10.12
2023-01-01T20:29:09.687Z,10.23
2023-01-01T20:34:06.045Z,10.10
2023-01-01T20:39:02.448Z,10.13
2023-01-01T20:44:01.381Z,10.12
2023-01-01T20:48:58.725Z,10.05
2023-01-01T20:53:55.652Z,10.05
2023-01-01T20:58:59.319Z,10.06
2023-01-01T21:03:58.482Z,10.10
2023-01-01T21:08:54.906Z,10.18
2023-01-01T21:13:51.572Z,10.13
2023-01-01T21:18:48.344Z,10.16
2023-01-01T21:23:45.042Z,10.18
2023-01-01T21:28:42.109Z,10.23
2023-01-01T21:33:38.865Z,10.17
2023-01-01T21:38:35.482Z,10.13
2023-01-01T21:43:31.809Z,10.18
2023-01-01T21:48:45.902Z,10.26
2023-01-01T21:53:42.304Z,10.15
2023-01-01T21:59:02.727Z,10.11
2023-01-01T22:04:21.955Z,10.18
2023-01-01T22:09:21.635Z,10.16
2023-01-01T22:14:23.026Z,10.12
2023-01-01T22:19:28.254Z,10.11
2023-01-01T22:24:35.278Z,10.15
2023-01-01T22:29:33.346Z,10.17
2023-01-01T22:34:29.826Z,10.23
2023-01-01T22:39:35.377Z,10.33
2023-01-01T22:44:33.577Z,10.37
2023-01-01T22:49:38.038Z,10.41
2023-01-01T22:54:34.438Z,10.46
2023-01-01T22:59:30.787Z,10.48
2023-01-01T23:04:27.184Z,10.49
2023-01-01T23:09:24.509Z,10.51
2023-01-01T23:14:39.554Z,10.55
2023-01-01T23:19:36.008Z,10.55
2023-01-01T23:24:33.306Z,10.46
2023-01-01T23:29:32.628Z,10.56
2023-01-01T23:34:29.014Z,10.54
2023-01-01T23:39:25.487Z,10.61
2023-01-01T23:44:21.915Z,10.67
2023-01-01T23:49:19.590Z,10.69
2023-01-01T23:54:16.191Z,10.67
2023-01-01T23:59:12.557Z,10.62
